Time;durP1;ratioP1;P1;durP2;ratioP2;P2;SDS_P1;SDS_P2;PMS_P1;PMS_P2;Temp;Humidity;BMP_temperature;BMP_pressure;BME280_temperature;BME280_humidity;BME280_pressure;Samples;Min_cycle;Max_cycle;Signal;HPM_P1;HPM_P2
2022/12/20 00:02:31;;;;;;;2.57;1.70;;;;;11.30;100860.00;;;;9838916;30;20208;-78
2022/12/20 00:07:34;;;;;;;5.00;1.97;;;;;11.40;100867.00;;;;9823492;30;20220;-78
2022/12/20 00:12:35;;;;;;;2.50;1.60;;;;;11.40;100877.00;;;;9823176;30;20596;-78
2022/12/20 00:17:37;;;;;;;4.97;1.80;;;;;11.10;100872.00;;;;9839963;30;20215;-78
2022/12/20 00:22:39;;;;;;;4.13;1.87;;;;;10.90;100848.00;;;;9824292;30;20235;-78
2022/12/20 00:27:41;;;;;;;2.37;1.73;;;;;10.90;100845.00;;;;9838809;30;20262;-77
2022/12/20 00:32:43;;;;;;;3.40;1.80;;;;;10.80;100821.00;;;;9818254;30;20216;-78
2022/12/20 00:37:45;;;;;;;2.60;1.80;;;;;10.70;100820.00;;;;9822807;30;20200;-79
2022/12/20 00:42:48;;;;;;;2.23;1.63;;;;;10.60;100808.00;;;;9811310;30;20274;-80
2022/12/20 00:47:50;;;;;;;3.57;2.20;;;;;10.50;100798.00;;;;9854422;30;20266;-79
2022/12/20 00:52:51;;;;;;;2.93;1.70;;;;;10.60;100781.00;;;;9830034;30;20210;-79
2022/12/20 00:57:53;;;;;;;4.97;3.13;;;;;10.60;100782.00;;;;9839268;30;20312;-79
2022/12/20 01:02:55;;;;;;;2.30;1.70;;;;;10.60;100768.00;;;;9806905;30;20708;-78
2022/12/20 01:07:58;;;;;;;2.47;1.97;;;;;10.60;100762.00;;;;9823032;30;20236;-78
2022/12/20 01:13:00;;;;;;;2.93;1.67;;;;;10.60;100791.00;;;;9838524;30;20262;-79
2022/12/20 01:18:02;;;;;;;4.07;1.80;;;;;10.70;100779.00;;;;9814309;30;20668;-78
2022/12/20 01:23:04;;;;;;;4.70;1.97;;;;;10.80;100758.00;;;;9860652;30;20219;-79
2022/12/20 01:28:06;;;;;;;3.17;1.60;;;;;10.80;100766.00;;;;9831500;30;20303;-80
2022/12/20 01:33:08;;;;;;;3.37;2.17;;;;;10.80;100780.00;;;;9826882;30;20216;-79
2022/12/20 01:38:10;;;;;;;4.27;2.10;;;;;10.70;100760.00;;;;9837431;30;20688;-79
2022/12/20 01:43:14;;;;;;;4.93;1.80;;;;;10.60;100772.00;;;;9793762;30;20201;-78
2022/12/20 01:48:21;;;;;;;3.77;1.73;;;;;10.70;100770.00;;;;9851280;30;20740;-79
2022/12/20 01:53:23;;;;;;;4.77;2.17;;;;;10.70;100776.00;;;;9840803;30;20281;-79
2022/12/20 01:58:25;;;;;;;2.47;2.20;;;;;10.60;100777.00;;;;9828328;30;20759;-80
2022/12/20 02:03:29;;;;;;;2.90;1.90;;;;;10.60;100789.00;;;;9795334;30;20200;-79
2022/12/20 02:08:32;;;;;;;2.03;1.83;;;;;10.70;100782.00;;;;9842827;30;20767;-78
2022/12/20 02:13:33;;;;;;;4.33;2.00;;;;;10.70;100778.00;;;;9828073;30;20234;-79
2022/12/20 02:19:06;;;;;;;2.40;1.73;;;;;10.70;100780.00;;;;9814472;30;20208;-79
2022/12/20 02:24:42;;;;;;;3.90;1.97;;;;;10.80;100772.00;;;;9808437;30;20212;-78
2022/12/20 02:30:08;;;;;;;3.47;2.17;;;;;10.80;100766.00;;;;9825564;30;20224;-79
2022/12/20 02:35:13;;;;;;;1.77;1.50;;;;;10.90;100767.00;;;;9813893;30;20233;-79
2022/12/20 02:40:19;;;;;;;2.57;1.70;;;;;11.00;100760.00;;;;9842606;30;20232;-79
2022/12/20 02:45:26;;;;;;;3.03;1.63;;;;;11.00;100747.00;;;;9828090;30;20737;-78
2022/12/20 02:50:38;;;;;;;3.10;1.90;;;;;11.10;100754.00;;;;9827555;30;20216;-78
2022/12/20 02:56:15;;;;;;;2.07;1.80;;;;;11.10;100755.00;;;;9834630;30;20603;-80
2022/12/20 03:01:40;;;;;;;3.60;1.67;;;;;11.20;100747.00;;;;9816254;30;20193;-79
2022/12/20 03:07:07;;;;;;;2.33;1.63;;;;;11.20;100736.00;;;;9819320;30;20260;-78
2022/12/20 03:12:11;;;;;;;2.27;2.07;;;;;11.20;100734.00;;;;9777144;30;20200;-78
2022/12/20 03:17:13;;;;;;;3.30;1.73;;;;;11.10;100736.00;;;;9828083;30;20207;-79
2022/12/20 03:22:16;;;;;;;3.47;1.77;;;;;11.20;100745.00;;;;9827087;30;20219;-78
2022/12/20 03:27:18;;;;;;;1.40;1.30;;;;;11.20;100728.00;;;;9804438;30;20221;-78
2022/12/20 03:32:21;;;;;;;4.50;1.83;;;;;11.30;100730.00;;;;9812005;30;20613;-78
2022/12/20 03:37:23;;;;;;;2.97;1.77;;;;;11.30;100735.00;;;;9822146;30;20215;-78
2022/12/20 03:42:28;;;;;;;4.30;1.73;;;;;11.30;100724.00;;;;9817309;30;20613;-79
2022/12/20 03:47:30;;;;;;;4.90;1.87;;;;;11.30;100730.00;;;;9839505;30;20220;-79
2022/12/20 03:52:32;;;;;;;3.53;1.77;;;;;11.30;100722.00;;;;9826550;30;20890;-78
2022/12/20 03:57:34;;;;;;;4.00;1.57;;;;;11.20;100720.00;;;;9840534;30;20260;-78
2022/12/20 04:02:39;;;;;;;2.13;1.60;;;;;11.20;100704.00;;;;9815480;30;20196;-78
2022/12/20 04:07:44;;;;;;;3.87;1.80;;;;;11.10;100717.00;;;;9821567;30;20244;-78
2022/12/20 04:12:46;;;;;;;3.47;1.60;;;;;11.20;100695.00;;;;9824651;30;20219;-79
2022/12/20 04:17:50;;;;;;;3.33;1.60;;;;;11.10;100685.00;;;;9803663;30;20226;-78
2022/12/20 04:22:53;;;;;;;2.07;1.57;;;;;11.10;100685.00;;;;9839992;30;20213;-78
2022/12/20 04:27:55;;;;;;;3.70;1.57;;;;;11.10;100676.00;;;;9839128;30;20255;-79
2022/12/20 04:32:57;;;;;;;2.17;1.60;;;;;11.00;100671.00;;;;9838574;30;20200;-80
2022/12/20 04:38:00;;;;;;;3.63;1.63;;;;;11.00;100674.00;;;;9809907;30;20307;-80
2022/12/20 04:43:02;;;;;;;2.47;1.80;;;;;11.00;100652.00;;;;9815779;30;20254;-78
2022/12/20 04:48:04;;;;;;;4.03;1.50;;;;;11.00;100654.00;;;;9823868;30;20794;-78
2022/12/20 04:58:58;;;;;;;6.63;1.60;;;;;11.00;100646.00;;;;9830053;30;20192;-78
2022/12/20 05:04:01;;;;;;;2.20;1.40;;;;;11.10;100654.00;;;;9823214;30;20233;-79
2022/12/20 05:09:07;;;;;;;4.43;1.53;;;;;11.10;100647.00;;;;9809215;30;20252;-79
2022/12/20 05:14:10;;;;;;;2.43;1.40;;;;;11.20;100642.00;;;;9823795;30;20199;-78
2022/12/20 05:19:12;;;;;;;1.80;1.40;;;;;11.10;100637.00;;;;9808775;30;20713;-78
2022/12/20 05:29:47;;;;;;;2.13;1.40;;;;;11.00;100619.00;;;;9860205;30;20236;-78
2022/12/20 05:34:49;;;;;;;1.93;1.17;;;;;11.00;100599.00;;;;9845027;30;20283;-78
2022/12/20 05:39:53;;;;;;;2.17;1.60;;;;;11.00;100580.00;;;;9830580;30;20293;-78
2022/12/20 05:44:57;;;;;;;2.53;1.20;;;;;11.00;100580.00;;;;9823530;30;20208;-78
2022/12/20 05:49:59;;;;;;;2.93;1.37;;;;;10.90;100590.00;;;;9830335;30;20256;-78
2022/12/20 05:55:10;;;;;;;1.40;1.07;;;;;10.90;100589.00;;;;9815475;30;20217;-78
2022/12/20 06:00:13;;;;;;;3.53;1.83;;;;;10.90;100592.00;;;;9828454;30;20196;-78
2022/12/20 06:05:17;;;;;;;1.53;1.30;;;;;10.90;100591.00;;;;9828314;30;20811;-79
2022/12/20 06:10:20;;;;;;;2.40;1.07;;;;;11.00;100580.00;;;;9812740;30;20250;-78
2022/12/20 06:15:30;;;;;;;1.40;1.27;;;;;11.00;100578.00;;;;9792779;30;20251;-78
2022/12/20 06:20:35;;;;;;;1.63;1.23;;;;;11.10;100559.00;;;;9842192;30;20204;-78
2022/12/20 06:25:38;;;;;;;1.83;1.20;;;;;11.00;100575.00;;;;9843611;30;20201;-78
2022/12/20 06:30:40;;;;;;;2.10;1.27;;;;;11.00;100574.00;;;;9808799;30;20212;-78
2022/12/20 06:35:51;;;;;;;2.63;1.20;;;;;11.10;100564.00;;;;9829802;30;20208;-79
2022/12/20 06:40:56;;;;;;;6.00;1.23;;;;;11.20;100575.00;;;;9816446;30;20620;-79
2022/12/20 06:45:59;;;;;;;2.57;1.20;;;;;11.30;100576.00;;;;9842285;30;20223;-79
2022/12/20 06:51:01;;;;;;;1.30;0.97;;;;;11.30;100575.00;;;;9844299;30;20219;-78
2022/12/20 06:56:03;;;;;;;3.07;1.20;;;;;11.40;100586.00;;;;9827601;30;20262;-78
2022/12/20 07:01:06;;;;;;;1.50;1.40;;;;;11.40;100604.00;;;;9821912;30;20211;-77
2022/12/20 07:06:08;;;;;;;2.23;1.20;;;;;11.40;100620.00;;;;9820816;30;20233;-78
2022/12/20 07:11:10;;;;;;;3.00;1.33;;;;;11.20;100617.00;;;;9809151;30;20224;-77
2022/12/20 07:16:13;;;;;;;2.33;1.17;;;;;10.90;100609.00;;;;9826702;30;20200;-77
2022/12/20 07:21:16;;;;;;;3.57;1.43;;;;;10.70;100608.00;;;;9827820;30;20561;-78
2022/12/20 07:26:18;;;;;;;6.10;1.43;;;;;10.70;100620.00;;;;9827399;30;20197;-78
2022/12/20 07:31:20;;;;;;;3.03;1.33;;;;;10.50;100613.00;;;;9827718;30;20216;-79
2022/12/20 07:36:22;;;;;;;1.47;1.17;;;;;10.40;100620.00;;;;9828084;30;20226;-79
2022/12/20 07:41:24;;;;;;;2.40;1.07;;;;;10.30;100627.00;;;;9827228;30;20205;-81
2022/12/20 07:46:26;;;;;;;2.37;1.20;;;;;10.20;100636.00;;;;9821277;30;20207;-81
2022/12/20 07:51:35;;;;;;;3.63;1.43;;;;;10.20;100642.00;;;;9818126;30;20216;-81
2022/12/20 07:56:43;;;;;;;2.63;1.43;;;;;10.10;100632.00;;;;9824191;30;20219;-80
2022/12/20 08:01:46;;;;;;;2.33;1.57;;;;;10.10;100627.00;;;;9824903;30;20204;-78
2022/12/20 08:06:50;;;;;;;2.40;1.40;;;;;10.20;100628.00;;;;9823303;30;20244;-77
2022/12/20 08:11:52;;;;;;;3.50;1.50;;;;;10.40;100625.00;;;;9837160;30;20216;-78
2022/12/20 08:16:54;;;;;;;1.97;1.47;;;;;10.50;100616.00;;;;9820680;30;20263;-79
2022/12/20 08:21:56;;;;;;;4.07;1.23;;;;;10.40;100620.00;;;;9809297;30;20208;-79
2022/12/20 08:26:58;;;;;;;3.27;1.30;;;;;10.30;100610.00;;;;9849669;30;20274;-79
2022/12/20 08:32:00;;;;;;;4.10;1.50;;;;;10.30;100616.00;;;;9824244;30;20368;-79
2022/12/20 08:37:02;;;;;;;4.50;1.63;;;;;10.30;100615.00;;;;9795996;30;20219;-79
2022/12/20 08:42:11;;;;;;;4.63;1.60;;;;;10.30;100607.00;;;;9810105;30;20470;-79
2022/12/20 08:47:14;;;;;;;2.70;1.40;;;;;10.40;100606.00;;;;9837875;30;20938;-79
2022/12/20 08:52:16;;;;;;;2.93;1.60;;;;;10.60;100613.00;;;;9822853;30;20220;-78
2022/12/20 08:57:18;;;;;;;8.20;1.90;;;;;10.80;100591.00;;;;9821594;30;20672;-78
2022/12/20 09:02:20;;;;;;;6.50;2.07;;;;;11.00;100604.00;;;;9822507;30;20196;-79
2022/12/20 09:07:22;;;;;;;3.37;1.77;;;;;11.20;100600.00;;;;9851184;30;20243;-78
2022/12/20 09:12:24;;;;;;;3.40;2.10;;;;;11.10;100609.00;;;;9817298;30;20220;-78
2022/12/20 09:17:26;;;;;;;3.07;1.67;;;;;11.20;100605.00;;;;9837242;30;20262;-79
2022/12/20 09:22:28;;;;;;;3.83;1.47;;;;;11.20;100599.00;;;;9817796;30;20201;-78
2022/12/20 09:27:30;;;;;;;5.03;1.83;;;;;11.40;100615.00;;;;9816647;30;20227;-78
2022/12/20 09:32:32;;;;;;;3.87;2.13;;;;;11.60;100608.00;;;;9837180;30;20217;-78
2022/12/20 09:37:34;;;;;;;5.30;1.50;;;;;11.70;100607.00;;;;9821605;30;20204;-78
2022/12/20 09:42:36;;;;;;;1.67;1.53;;;;;11.60;100594.00;;;;9819934;30;20197;-78
2022/12/20 09:47:38;;;;;;;5.00;1.60;;;;;11.30;100598.00;;;;9828760;30;20251;-78
2022/12/20 09:52:58;;;;;;;1.83;1.27;;;;;11.10;100598.00;;;;9842489;30;20560;-78
2022/12/20 09:58:45;;;;;;;5.73;1.80;;;;;10.90;100606.00;;;;9819642;30;20244;-80
2022/12/20 10:03:47;;;;;;;2.93;1.43;;;;;10.80;100603.00;;;;9823097;30;20244;-80
2022/12/20 10:09:01;;;;;;;2.50;1.50;;;;;10.70;100618.00;;;;9820158;30;20220;-80
2022/12/20 10:14:20;;;;;;;3.00;1.50;;;;;10.70;100606.00;;;;9829243;30;20197;-80
2022/12/20 10:19:29;;;;;;;5.13;2.03;;;;;10.80;100609.00;;;;9802434;30;20216;-81
2022/12/20 10:24:33;;;;;;;3.10;1.70;;;;;10.80;100611.00;;;;9835452;30;20303;-80
2022/12/20 10:29:35;;;;;;;2.97;2.20;;;;;10.80;100603.00;;;;9798368;30;20216;-78
2022/12/20 10:34:37;;;;;;;5.90;2.20;;;;;10.80;100599.00;;;;9804086;30;20647;-77
2022/12/20 10:39:49;;;;;;;3.40;2.10;;;;;10.90;100596.00;;;;9819095;30;20205;-78
2022/12/20 10:44:52;;;;;;;5.03;2.47;;;;;11.10;100578.00;;;;9808948;30;20201;-78
2022/12/20 10:50:08;;;;;;;5.77;2.23;;;;;11.20;100590.00;;;;9839735;30;20236;-78
2022/12/20 10:55:32;;;;;;;3.60;2.30;;;;;11.30;100586.00;;;;9832421;30;20198;-79
2022/12/20 11:00:34;;;;;;;2.60;2.33;;;;;11.20;100579.00;;;;9803641;30;20214;-79
2022/12/20 11:05:37;;;;;;;2.80;2.23;;;;;11.20;100587.00;;;;9825056;30;20600;-79
2022/12/20 11:10:39;;;;;;;2.87;2.10;;;;;11.00;100575.00;;;;9858488;30;20685;-79
2022/12/20 11:15:47;;;;;;;7.07;2.30;;;;;10.90;100572.00;;;;9808267;30;20208;-79
2022/12/20 11:21:06;;;;;;;4.37;2.60;;;;;10.90;100568.00;;;;9809944;30;20197;-79
2022/12/20 11:26:54;;;;;;;3.90;2.60;;;;;10.90;100574.00;;;;9831881;30;20222;-78
2022/12/20 11:31:56;;;;;;;3.13;2.30;;;;;10.80;100570.00;;;;9814423;30;20213;-78
2022/12/20 11:37:08;;;;;;;5.83;2.50;;;;;10.80;100570.00;;;;9802562;30;20218;-78
2022/12/20 11:42:28;;;;;;;2.73;2.33;;;;;10.90;100564.00;;;;9843573;30;20196;-78
2022/12/20 11:47:39;;;;;;;5.87;2.17;;;;;10.90;100565.00;;;;9844993;30;20208;-80
2022/12/20 11:52:55;;;;;;;3.73;2.10;;;;;10.80;100558.00;;;;9816940;30;20341;-78
2022/12/20 11:58:15;;;;;;;4.73;1.90;;;;;10.70;100550.00;;;;9814616;30;20209;-79
2022/12/20 12:03:29;;;;;;;4.23;2.20;;;;;10.60;100538.00;;;;9820955;30;20228;-78
2022/12/20 12:08:37;;;;;;;4.90;2.00;;;;;10.60;100539.00;;;;9805092;30;20219;-78
2022/12/20 12:13:41;;;;;;;3.10;1.80;;;;;10.60;100535.00;;;;9835621;30;20290;-78
2022/12/20 12:18:43;;;;;;;2.80;1.77;;;;;10.50;100533.00;;;;9808826;30;20229;-78
2022/12/20 12:24:10;;;;;;;4.27;1.87;;;;;10.50;100521.00;;;;9802647;30;20201;-80
2022/12/20 12:29:16;;;;;;;4.27;1.70;;;;;10.40;100511.00;;;;9829825;30;20345;-79
2022/12/20 12:34:48;;;;;;;2.73;1.70;;;;;10.40;100516.00;;;;9831098;30;20208;-80
2022/12/20 12:39:59;;;;;;;2.97;2.43;;;;;10.40;100503.00;;;;9802625;30;20205;-78
2022/12/20 12:45:13;;;;;;;2.53;1.80;;;;;10.40;100502.00;;;;9818614;30;20205;-79
2022/12/20 12:50:23;;;;;;;4.20;2.13;;;;;10.30;100497.00;;;;9829912;30;20213;-79
2022/12/20 12:55:46;;;;;;;4.63;2.10;;;;;10.30;100503.00;;;;9819999;30;20200;-78
2022/12/20 13:00:58;;;;;;;4.67;2.13;;;;;10.20;100509.00;;;;9814183;30;20213;-78
2022/12/20 13:06:22;;;;;;;3.97;2.20;;;;;10.20;100500.00;;;;9814745;30;20256;-79
2022/12/20 13:11:31;;;;;;;3.53;2.13;;;;;10.20;100498.00;;;;9804871;30;20224;-79
2022/12/20 13:16:34;;;;;;;4.63;1.97;;;;;10.20;100514.00;;;;9809251;30;20660;-78
2022/12/20 13:22:11;;;;;;;3.13;2.00;;;;;10.20;100511.00;;;;9811852;30;20224;-78
2022/12/20 13:27:20;;;;;;;6.93;2.17;;;;;10.20;100503.00;;;;9807437;30;20204;-78
2022/12/20 13:32:48;;;;;;;8.23;2.23;;;;;10.20;100496.00;;;;9828719;30;20231;-78
2022/12/20 13:38:06;;;;;;;2.23;1.80;;;;;10.20;100506.00;;;;9821571;30;20211;-78
2022/12/20 13:43:24;;;;;;;7.27;2.13;;;;;10.20;100505.00;;;;9809343;30;20211;-79
2022/12/20 13:48:48;;;;;;;4.97;2.47;;;;;10.20;100487.00;;;;9822075;30;20653;-78
2022/12/20 13:54:00;;;;;;;6.00;2.73;;;;;10.40;100490.00;;;;9820352;30;20212;-79
2022/12/20 13:59:18;;;;;;;3.60;1.70;;;;;10.40;100482.00;;;;9854781;30;20263;-79
2022/12/20 14:04:21;;;;;;;4.17;2.17;;;;;10.30;100482.00;;;;9813480;30;20232;-78
2022/12/20 14:09:35;;;;;;;2.77;1.83;;;;;10.20;100483.00;;;;9823764;30;20224;-78
2022/12/20 14:14:48;;;;;;;2.03;1.60;;;;;10.20;100487.00;;;;9791269;30;20742;-78
2022/12/20 14:20:02;;;;;;;4.93;1.93;;;;;10.20;100496.00;;;;9808060;30;20853;-78
2022/12/20 14:25:06;;;;;;;5.80;1.83;;;;;10.10;100483.00;;;;9829593;30;20236;-78
2022/12/20 14:30:34;;;;;;;2.50;1.80;;;;;10.10;100473.00;;;;9829568;30;20215;-78
2022/12/20 14:35:36;;;;;;;2.03;1.60;;;;;10.10;100474.00;;;;9813030;30;20208;-78
2022/12/20 14:40:42;;;;;;;3.40;1.50;;;;;10.10;100484.00;;;;9827169;30;20251;-78
2022/12/20 14:45:44;;;;;;;3.23;1.73;;;;;10.20;100475.00;;;;9820512;30;20208;-78
2022/12/20 14:50:52;;;;;;;3.53;1.77;;;;;10.20;100473.00;;;;9804126;30;20228;-78
2022/12/20 14:55:55;;;;;;;3.30;1.87;;;;;10.10;100476.00;;;;9799618;30;20200;-79
2022/12/20 15:01:16;;;;;;;4.90;1.70;;;;;10.10;100475.00;;;;9841591;30;20201;-79
2022/12/20 15:06:42;;;;;;;3.93;1.70;;;;;10.10;100469.00;;;;9848892;30;20599;-78
2022/12/20 15:11:46;;;;;;;2.23;1.70;;;;;10.00;100473.00;;;;9832042;30;20220;-78
2022/12/20 15:16:48;;;;;;;5.87;1.63;;;;;10.00;100470.00;;;;9817474;30;20209;-78
2022/12/20 15:21:52;;;;;;;6.17;1.77;;;;;10.00;100471.00;;;;9827933;30;20258;-78
2022/12/20 15:26:54;;;;;;;2.67;1.87;;;;;10.00;100464.00;;;;9821129;30;20213;-78
2022/12/20 15:32:14;;;;;;;3.90;1.90;;;;;10.00;100469.00;;;;9832897;30;20215;-78
2022/12/20 15:37:16;;;;;;;5.70;2.67;;;;;9.90;100465.00;;;;9850250;30;20196;-80
2022/12/20 15:42:21;;;;;;;2.07;1.87;;;;;10.00;100465.00;;;;9840166;30;20249;-79
2022/12/20 15:47:23;;;;;;;3.13;1.83;;;;;9.90;100469.00;;;;9847600;30;20242;-80
2022/12/20 15:52:25;;;;;;;5.53;1.97;;;;;9.90;100469.00;;;;9789129;30;20304;-80
2022/12/20 15:57:27;;;;;;;3.90;2.27;;;;;9.90;100464.00;;;;9807516;30;20665;-79
2022/12/20 16:02:31;;;;;;;2.13;1.73;;;;;9.90;100453.00;;;;9811714;30;20234;-79
2022/12/20 16:07:33;;;;;;;2.57;1.97;;;;;9.90;100451.00;;;;9835518;30;20588;-79
2022/12/20 16:12:35;;;;;;;3.97;2.10;;;;;9.90;100469.00;;;;9846551;30;20258;-79
2022/12/20 16:17:37;;;;;;;3.83;2.00;;;;;9.90;100469.00;;;;9817281;30;20215;-78
2022/12/20 16:22:39;;;;;;;4.20;2.37;;;;;9.90;100468.00;;;;9836394;30;20203;-78
2022/12/20 16:27:41;;;;;;;6.20;2.77;;;;;9.90;100460.00;;;;9822169;30;20208;-78
2022/12/20 16:32:43;;;;;;;2.47;2.13;;;;;9.90;100459.00;;;;9805683;30;20660;-78
2022/12/20 16:37:45;;;;;;;3.77;1.80;;;;;9.80;100455.00;;;;9792006;30;20258;-78
2022/12/20 16:42:47;;;;;;;1.87;1.77;;;;;9.80;100447.00;;;;9820301;30;20691;-80
2022/12/20 16:47:49;;;;;;;5.50;1.93;;;;;9.80;100454.00;;;;9824971;30;20961;-79
2022/12/20 16:52:51;;;;;;;4.37;2.10;;;;;9.80;100444.00;;;;9805288;30;20220;-79
2022/12/20 16:57:53;;;;;;;2.10;1.93;;;;;9.80;100444.00;;;;9815485;30;20201;-79
2022/12/20 17:02:57;;;;;;;1.93;1.57;;;;;9.80;100454.00;;;;9837917;30;20238;-78
2022/12/20 17:07:59;;;;;;;3.10;2.10;;;;;9.80;100453.00;;;;9823236;30;20328;-78
2022/12/20 17:13:01;;;;;;;3.20;2.33;;;;;9.80;100458.00;;;;9834623;30;20243;-79
2022/12/20 17:18:03;;;;;;;2.23;2.03;;;;;9.80;100466.00;;;;9825359;30;20204;-79
2022/12/20 17:23:11;;;;;;;4.53;2.30;;;;;9.80;100457.00;;;;9824036;30;20239;-78
2022/12/20 17:28:13;;;;;;;3.83;2.33;;;;;9.80;100471.00;;;;9815452;30;20207;-78
2022/12/20 17:33:15;;;;;;;3.40;2.30;;;;;9.80;100476.00;;;;9836888;30;20299;-78
2022/12/20 17:38:17;;;;;;;3.63;1.70;;;;;9.80;100469.00;;;;9832075;30;20733;-81
2022/12/20 17:43:19;;;;;;;2.73;2.20;;;;;9.80;100462.00;;;;9821445;30;20998;-79
2022/12/20 17:48:22;;;;;;;4.63;2.30;;;;;9.80;100461.00;;;;9850279;30;20208;-79
2022/12/20 17:53:32;;;;;;;3.07;1.83;;;;;9.80;100457.00;;;;9823654;30;20227;-79
2022/12/20 17:58:34;;;;;;;2.83;1.53;;;;;9.80;100467.00;;;;9845836;30;20220;-80
2022/12/20 18:03:36;;;;;;;2.70;2.00;;;;;9.80;100454.00;;;;9831456;30;20240;-79
2022/12/20 18:08:59;;;;;;;3.03;2.40;;;;;9.80;100465.00;;;;9819583;30;20200;-79
2022/12/20 18:14:02;;;;;;;2.43;2.07;;;;;9.80;100461.00;;;;9827032;30;20209;-80
2022/12/20 18:19:04;;;;;;;3.57;2.10;;;;;9.80;100462.00;;;;9818109;30;20208;-79
2022/12/20 18:24:13;;;;;;;5.77;2.00;;;;;9.80;100470.00;;;;9847109;30;20193;-79
2022/12/20 18:29:15;;;;;;;6.77;2.10;;;;;9.80;100481.00;;;;9826309;30;20208;-78
2022/12/20 18:34:16;;;;;;;3.73;1.80;;;;;9.80;100478.00;;;;9845393;30;20219;-78
2022/12/20 18:39:18;;;;;;;4.00;2.10;;;;;9.80;100468.00;;;;9829983;30;20189;-79
2022/12/20 18:44:20;;;;;;;4.13;2.37;;;;;9.80;100464.00;;;;9814115;30;20207;-78
2022/12/20 18:49:22;;;;;;;2.37;1.97;;;;;9.80;100472.00;;;;9856201;30;20193;-79
2022/12/20 18:54:24;;;;;;;4.37;3.07;;;;;9.80;100469.00;;;;9798409;30;20196;-78
2022/12/20 18:59:26;;;;;;;2.10;1.67;;;;;9.80;100470.00;;;;9844921;30;20246;-78
2022/12/20 19:04:28;;;;;;;2.70;2.33;;;;;9.80;100469.00;;;;9817351;30;20231;-78
2022/12/20 19:09:30;;;;;;;3.73;2.70;;;;;9.80;100474.00;;;;9816058;30;20235;-78
2022/12/20 19:14:32;;;;;;;4.53;2.73;;;;;9.80;100467.00;;;;9845395;30;20674;-80
2022/12/20 19:19:34;;;;;;;4.57;2.90;;;;;9.80;100469.00;;;;9831269;30;20295;-80
2022/12/20 19:24:36;;;;;;;4.63;2.67;;;;;9.80;100475.00;;;;9817354;30;20216;-79
2022/12/20 19:29:38;;;;;;;6.33;2.83;;;;;9.80;100471.00;;;;9823688;30;20604;-78
2022/12/20 19:34:40;;;;;;;5.73;3.70;;;;;9.80;100482.00;;;;9807077;30;20254;-78
2022/12/20 19:39:42;;;;;;;4.93;4.23;;;;;9.80;100481.00;;;;9810406;30;20197;-78
2022/12/20 19:44:44;;;;;;;4.93;3.33;;;;;9.80;100490.00;;;;9844857;30;20228;-78
2022/12/20 19:49:47;;;;;;;3.63;3.20;;;;;9.80;100486.00;;;;9831639;30;20286;-78
2022/12/20 19:54:59;;;;;;;5.97;4.27;;;;;9.80;100493.00;;;;9831275;30;20304;-78
2022/12/20 20:00:01;;;;;;;4.30;3.90;;;;;9.80;100490.00;;;;9842730;30;20204;-78
2022/12/20 20:05:12;;;;;;;6.77;3.73;;;;;9.80;100490.00;;;;9846529;30;20240;-78
2022/12/20 20:10:16;;;;;;;4.63;3.70;;;;;9.80;100494.00;;;;9830122;30;20224;-78
2022/12/20 20:15:18;;;;;;;5.87;4.17;;;;;9.80;100497.00;;;;9823291;30;20204;-78
2022/12/20 20:20:21;;;;;;;10.00;4.30;;;;;9.80;100505.00;;;;9825384;30;20207;-78
2022/12/20 20:25:23;;;;;;;6.87;4.93;;;;;9.80;100497.00;;;;9843643;30;20197;-78
2022/12/20 20:30:25;;;;;;;9.50;5.20;;;;;9.80;100486.00;;;;9814318;30;20310;-80
2022/12/20 20:35:26;;;;;;;7.57;5.23;;;;;9.80;100496.00;;;;9828536;30;20214;-78
2022/12/20 20:40:28;;;;;;;9.13;4.93;;;;;9.80;100492.00;;;;9837435;30;20192;-78
2022/12/20 20:45:30;;;;;;;7.43;5.13;;;;;9.80;100493.00;;;;9813557;30;20216;-78
2022/12/20 20:50:32;;;;;;;6.37;5.27;;;;;9.80;100507.00;;;;9831678;30;20209;-80
2022/12/20 20:55:34;;;;;;;9.20;5.30;;;;;9.80;100497.00;;;;9858905;30;20196;-78
2022/12/20 21:00:36;;;;;;;9.13;5.60;;;;;9.80;100496.00;;;;9803331;30;20212;-78
2022/12/20 21:05:38;;;;;;;7.10;5.33;;;;;9.80;100500.00;;;;9823030;30;20255;-78
2022/12/20 21:11:05;;;;;;;9.10;6.07;;;;;9.80;100509.00;;;;9831591;30;20268;-78
2022/12/20 21:16:11;;;;;;;8.37;5.77;;;;;9.80;100516.00;;;;9814532;30;20238;-78
2022/12/20 21:21:13;;;;;;;11.10;5.73;;;;;9.80;100514.00;;;;9829902;30;20612;-78
2022/12/20 21:26:16;;;;;;;8.90;6.73;;;;;9.80;100509.00;;;;9829685;30;20576;-78
2022/12/20 21:31:18;;;;;;;11.53;7.37;;;;;9.80;100510.00;;;;9821717;30;20216;-78
2022/12/20 21:36:20;;;;;;;11.93;7.50;;;;;9.80;100516.00;;;;9799739;30;20213;-78
2022/12/20 21:41:25;;;;;;;15.97;9.57;;;;;9.80;100522.00;;;;9815226;30;20677;-79
2022/12/20 21:46:28;;;;;;;13.13;7.87;;;;;9.80;100513.00;;;;9811624;30;20208;-78
2022/12/20 21:51:31;;;;;;;15.00;8.27;;;;;9.70;100524.00;;;;9814858;30;20208;-80
2022/12/20 21:56:34;;;;;;;10.80;8.47;;;;;9.70;100523.00;;;;9849588;30;20214;-78
2022/12/20 22:01:36;;;;;;;14.33;9.67;;;;;9.70;100529.00;;;;9801171;30;20192;-78
2022/12/20 22:06:40;;;;;;;15.83;10.50;;;;;9.70;100536.00;;;;9806141;30;20243;-78
2022/12/20 22:11:42;;;;;;;16.77;10.87;;;;;9.70;100536.00;;;;9821798;30;20216;-77
2022/12/20 22:16:44;;;;;;;17.17;10.80;;;;;9.70;100536.00;;;;9806478;30;20223;-78
2022/12/20 22:21:47;;;;;;;18.87;10.87;;;;;9.60;100537.00;;;;9857819;30;20687;-77
2022/12/20 22:27:00;;;;;;;17.10;10.73;;;;;9.60;100545.00;;;;9805292;30;20215;-78
2022/12/20 22:32:11;;;;;;;17.73;11.50;;;;;9.60;100534.00;;;;9835113;30;20280;-77
2022/12/20 22:37:15;;;;;;;20.30;11.80;;;;;9.60;100545.00;;;;9832532;30;20212;-78
2022/12/20 22:42:20;;;;;;;24.93;13.10;;;;;9.60;100537.00;;;;9830720;30;20188;-77
2022/12/20 22:47:23;;;;;;;23.47;12.53;;;;;9.60;100549.00;;;;9815386;30;20236;-77
2022/12/20 22:52:25;;;;;;;22.60;12.23;;;;;9.60;100554.00;;;;9823924;30;20209;-77
2022/12/20 22:57:29;;;;;;;20.03;12.43;;;;;9.50;100561.00;;;;9825780;30;20213;-77
2022/12/20 23:02:32;;;;;;;23.60;14.53;;;;;9.50;100560.00;;;;9844396;30;20565;-77
2022/12/20 23:07:34;;;;;;;30.63;16.10;;;;;9.50;100561.00;;;;9829342;30;20228;-77
2022/12/20 23:17:57;;;;;;;23.17;13.67;;;;;9.40;100553.00;;;;9835845;30;20729;-77
2022/12/20 23:22:59;;;;;;;20.27;11.50;;;;;9.40;100554.00;;;;9845852;30;20201;-77
2022/12/20 23:28:01;;;;;;;21.83;11.17;;;;;9.30;100548.00;;;;9819535;30;20211;-78
2022/12/20 23:33:03;;;;;;;20.43;10.13;;;;;9.30;100551.00;;;;9821913;30;20248;-77
2022/12/20 23:38:05;;;;;;;20.97;11.00;;;;;9.20;100547.00;;;;9818507;30;20196;-78
2022/12/20 23:43:07;;;;;;;17.50;10.20;;;;;9.20;100544.00;;;;9823696;30;20193;-78
2022/12/20 23:48:09;;;;;;;16.57;8.80;;;;;9.20;100552.00;;;;9807127;30;20213;-77
2022/12/20 23:53:11;;;;;;;14.37;8.63;;;;;9.10;100548.00;;;;9827379;30;20209;-78
2022/12/20 23:58:13;;;;;;;14.03;7.63;;;;;9.10;100540.00;;;;9812820;30;20197;-77
